createdAt,value
2018-08-22T00:01:12.009Z,955.06
2018-08-22T00:03:38.317Z,955.06
2018-08-22T00:06:04.637Z,955.12
2018-08-22T00:08:30.956Z,955.06
2018-08-22T00:10:57.271Z,955.09
2018-08-22T00:13:23.588Z,955.14
2018-08-22T00:15:49.893Z,955.12
2018-08-22T00:18:16.216Z,955.10
2018-08-22T00:20:42.534Z,955.09
2018-08-22T00:23:08.885Z,955.08
2018-08-22T00:25:35.197Z,955.11
2018-08-22T00:28:01.542Z,955.11
2018-08-22T00:30:27.891Z,955.14
2018-08-22T00:32:54.245Z,955.14
2018-08-22T00:35:23.337Z,955.14
2018-08-22T00:37:49.667Z,955.14
2018-08-22T00:40:16.060Z,955.10
2018-08-22T00:42:42.354Z,955.16
2018-08-22T00:45:08.697Z,955.16
2018-08-22T00:47:35.034Z,955.19
2018-08-22T00:50:01.411Z,955.18
2018-08-22T00:52:27.741Z,955.22
2018-08-22T00:54:54.066Z,955.26
2018-08-22T00:57:20.414Z,955.17
2018-08-22T00:59:46.789Z,955.13
2018-08-22T01:02:13.139Z,955.21
2018-08-22T01:04:39.491Z,955.16
2018-08-22T01:07:05.817Z,955.19
2018-08-22T01:09:32.198Z,955.18
2018-08-22T01:11:58.506Z,955.22
2018-08-22T01:14:24.847Z,955.27
2018-08-22T01:16:51.202Z,955.17
2018-08-22T01:19:17.528Z,955.23
2018-08-22T01:21:43.895Z,955.25
2018-08-22T01:24:10.250Z,955.30
2018-08-22T01:26:36.583Z,955.28
2018-08-22T01:29:02.938Z,955.27
2018-08-22T01:31:29.271Z,955.30
2018-08-22T01:33:55.614Z,955.31
2018-08-22T01:36:21.983Z,955.31
2018-08-22T01:38:48.308Z,955.32
2018-08-22T01:41:14.627Z,955.28
2018-08-22T01:43:41.003Z,955.20
2018-08-22T01:46:07.312Z,955.22
2018-08-22T01:48:33.633Z,955.15
2018-08-22T01:50:59.988Z,955.21
2018-08-22T01:53:26.300Z,955.26
2018-08-22T01:55:52.623Z,955.22
2018-08-22T01:58:18.949Z,955.29
2018-08-22T02:00:45.281Z,955.27
2018-08-22T02:03:11.611Z,955.26
2018-08-22T02:05:37.932Z,955.36
2018-08-22T02:08:04.286Z,955.34
2018-08-22T02:10:30.644Z,955.32
2018-08-22T02:12:56.980Z,955.33
2018-08-22T02:15:23.310Z,955.34
2018-08-22T02:17:49.695Z,955.28
2018-08-22T02:20:15.951Z,955.37
2018-08-22T02:22:42.269Z,955.34
2018-08-22T02:25:08.617Z,955.34
2018-08-22T02:27:34.906Z,955.35
2018-08-22T02:32:46.664Z,955.31
2018-08-22T02:35:12.984Z,955.28
2018-08-22T02:37:39.347Z,955.28
2018-08-22T02:40:05.680Z,955.36
2018-08-22T02:42:32.033Z,955.32
2018-08-22T02:44:58.401Z,955.36
2018-08-22T02:47:24.734Z,955.34
2018-08-22T02:49:51.055Z,955.34
2018-08-22T02:52:17.380Z,955.32
2018-08-22T02:54:43.724Z,955.35
2018-08-22T02:57:10.038Z,955.36
2018-08-22T02:59:36.389Z,955.40
2018-08-22T03:02:02.703Z,955.45
2018-08-22T03:04:29.052Z,955.42
2018-08-22T03:06:55.369Z,955.39
2018-08-22T03:09:21.689Z,955.47
2018-08-22T03:11:48.003Z,955.51
2018-08-22T03:14:14.367Z,955.47
2018-08-22T03:16:40.655Z,955.43
2018-08-22T03:19:06.974Z,955.47
2018-08-22T03:21:33.299Z,955.46
2018-08-22T03:23:59.634Z,955.43
2018-08-22T03:26:25.950Z,955.47
2018-08-22T03:28:52.265Z,955.48
2018-08-22T03:31:18.585Z,955.52
2018-08-22T03:33:44.905Z,955.57
2018-08-22T03:36:11.218Z,955.63
2018-08-22T03:38:37.553Z,955.60
2018-08-22T03:41:03.869Z,955.56
2018-08-22T03:43:30.177Z,955.66
2018-08-22T03:45:56.495Z,955.74
2018-08-22T03:48:22.816Z,955.75
2018-08-22T03:50:49.206Z,955.75
2018-08-22T03:53:15.556Z,955.79
2018-08-22T03:55:41.888Z,955.79
2018-08-22T03:58:08.213Z,955.83
2018-08-22T04:00:34.532Z,955.87
2018-08-22T04:03:00.843Z,955.87
2018-08-22T04:05:27.158Z,955.85
2018-08-22T04:07:53.482Z,955.86
2018-08-22T04:10:19.805Z,955.84
2018-08-22T04:12:46.145Z,955.89
2018-08-22T04:15:12.458Z,955.93
2018-08-22T04:17:38.768Z,956.03
2018-08-22T04:20:05.072Z,956.08
2018-08-22T04:22:31.389Z,955.99
2018-08-22T04:24:57.723Z,956.09
2018-08-22T04:27:24.040Z,956.10
2018-08-22T04:29:50.352Z,956.14
2018-08-22T04:32:16.673Z,956.14
2018-08-22T04:34:42.984Z,956.19
2018-08-22T04:37:09.290Z,956.14
2018-08-22T04:39:35.646Z,956.18
2018-08-22T04:42:02.003Z,956.20
2018-08-22T04:44:28.271Z,956.20
2018-08-22T04:46:54.584Z,956.10
2018-08-22T04:49:20.929Z,956.21
2018-08-22T04:51:47.247Z,956.23
2018-08-22T04:54:13.559Z,956.25
2018-08-22T04:56:39.872Z,956.23
2018-08-22T04:59:06.183Z,956.25
2018-08-22T05:01:32.498Z,956.21
2018-08-22T05:03:59.081Z,956.26
2018-08-22T05:06:25.394Z,956.20
2018-08-22T05:08:51.915Z,956.26
2018-08-22T05:11:18.062Z,956.17
2018-08-22T05:13:44.375Z,956.19
2018-08-22T05:16:10.681Z,956.15
2018-08-22T05:18:36.991Z,956.16
2018-08-22T05:21:03.348Z,956.19
2018-08-22T05:23:29.624Z,956.14
2018-08-22T05:25:55.945Z,956.23
2018-08-22T05:28:22.268Z,956.15
2018-08-22T05:30:48.586Z,956.19
2018-08-22T05:33:14.891Z,956.23
2018-08-22T05:35:41.208Z,956.27
2018-08-22T05:38:07.519Z,956.25
2018-08-22T05:40:33.897Z,956.32
2018-08-22T05:43:00.163Z,956.23
2018-08-22T05:45:26.477Z,956.34
2018-08-22T05:47:52.784Z,956.24
2018-08-22T05:50:19.107Z,956.26
2018-08-22T05:52:45.411Z,956.31
2018-08-22T05:55:11.730Z,956.29
2018-08-22T05:57:38.137Z,956.26
2018-08-22T06:00:04.475Z,956.22
2018-08-22T06:02:30.809Z,956.20
2018-08-22T06:04:57.159Z,956.28
2018-08-22T06:07:23.493Z,956.26
2018-08-22T06:09:49.808Z,956.25
2018-08-22T06:12:16.123Z,956.25
2018-08-22T06:14:42.466Z,956.24
2018-08-22T06:17:08.793Z,956.31
2018-08-22T06:19:35.111Z,956.30
2018-08-22T06:22:01.429Z,956.38
2018-08-22T06:24:27.751Z,956.33
2018-08-22T06:26:54.104Z,956.34
2018-08-22T06:29:20.426Z,956.34
2018-08-22T06:31:46.747Z,956.36
2018-08-22T06:34:13.058Z,956.39
2018-08-22T06:36:39.386Z,956.39
2018-08-22T06:39:05.712Z,956.40
2018-08-22T06:41:32.032Z,956.39
2018-08-22T06:43:58.345Z,956.34
2018-08-22T06:46:24.660Z,956.41
2018-08-22T06:48:50.985Z,956.49
2018-08-22T06:51:17.297Z,956.40
2018-08-22T06:53:43.627Z,956.40
2018-08-22T06:56:09.938Z,956.38
2018-08-22T06:58:36.254Z,956.42
2018-08-22T07:01:02.575Z,956.49
2018-08-22T07:03:28.901Z,956.52
2018-08-22T07:05:55.220Z,956.48
2018-08-22T07:08:21.616Z,956.61
2018-08-22T07:10:47.926Z,956.48
2018-08-22T07:13:14.493Z,956.42
2018-08-22T07:15:40.813Z,956.49
2018-08-22T07:18:07.116Z,956.43
2018-08-22T07:20:33.432Z,956.44
2018-08-22T07:22:59.760Z,956.44
2018-08-22T07:48:43.447Z,956.40
2018-08-22T07:51:09.788Z,956.38
2018-08-22T07:53:36.125Z,956.35
2018-08-22T07:56:02.447Z,956.33
2018-08-22T07:58:28.790Z,956.30
2018-08-22T08:00:55.112Z,956.34
2018-08-22T08:03:21.457Z,956.24
2018-08-22T08:05:47.782Z,956.21
2018-08-22T08:08:14.095Z,956.32
2018-08-22T08:10:40.434Z,956.28
2018-08-22T08:13:06.748Z,956.24
2018-08-22T08:15:33.078Z,956.30
2018-08-22T08:17:59.390Z,956.24
2018-08-22T08:20:25.757Z,956.25
2018-08-22T08:22:52.120Z,956.20
2018-08-22T08:25:18.481Z,956.23
2018-08-22T08:27:44.819Z,956.32
2018-08-22T08:30:11.167Z,956.23
2018-08-22T08:32:37.490Z,956.22
2018-08-22T08:35:03.801Z,956.21
2018-08-22T08:37:30.120Z,956.17
2018-08-22T08:39:56.439Z,956.14
2018-08-22T08:42:22.789Z,956.08
2018-08-22T08:44:49.090Z,956.14
2018-08-22T08:47:15.409Z,956.12
2018-08-22T08:49:41.833Z,956.13
2018-08-22T08:52:08.075Z,956.08
2018-08-22T08:54:34.396Z,956.07
2018-08-22T08:57:00.724Z,956.09
2018-08-22T08:59:27.059Z,956.07
2018-08-22T09:01:53.370Z,956.08
2018-08-22T09:04:19.705Z,956.02
2018-08-22T09:06:46.025Z,956.05
2018-08-22T09:09:12.384Z,956.01
2018-08-22T09:11:38.719Z,956.01
2018-08-22T09:14:06.014Z,955.95
2018-08-22T09:16:32.364Z,955.93
2018-08-22T09:18:58.715Z,955.93
2018-08-22T09:21:25.058Z,955.82
2018-08-22T09:23:51.337Z,955.83
2018-08-22T09:26:17.657Z,955.90
2018-08-22T09:28:43.978Z,955.77
2018-08-22T09:31:10.325Z,955.76
2018-08-22T09:33:36.660Z,955.75
2018-08-22T09:36:02.961Z,955.59
2018-08-22T09:38:29.279Z,955.66
2018-08-22T09:40:55.628Z,955.63
2018-08-22T09:43:22.004Z,955.63
2018-08-22T09:45:48.283Z,955.59
2018-08-22T09:48:14.614Z,955.51
2018-08-22T09:50:40.944Z,955.62
2018-08-22T09:53:07.224Z,955.49
2018-08-22T09:55:33.546Z,955.50
2018-08-22T09:57:59.902Z,955.53
2018-08-22T10:00:26.181Z,955.50
2018-08-22T10:02:52.512Z,955.49
2018-08-22T10:05:24.446Z,955.49
2018-08-22T10:07:50.702Z,955.39
2018-08-22T10:10:17.074Z,955.44
2018-08-22T10:12:43.360Z,955.36
2018-08-22T10:15:09.649Z,955.46
2018-08-22T10:17:35.975Z,955.47
2018-08-22T10:20:02.301Z,955.48
2018-08-22T10:22:28.634Z,955.42
2018-08-22T10:24:54.967Z,955.36
2018-08-22T10:27:21.302Z,955.26
2018-08-22T10:29:47.615Z,955.17
2018-08-22T10:32:13.959Z,955.35
2018-08-22T10:34:40.326Z,955.25
2018-08-22T10:37:06.660Z,955.20
2018-08-22T10:39:33.008Z,955.15
2018-08-22T10:41:59.312Z,955.13
2018-08-22T10:44:25.660Z,955.14
2018-08-22T10:46:51.951Z,955.25
2018-08-22T10:49:18.273Z,955.19
2018-08-22T10:51:44.593Z,955.20
2018-08-22T10:54:10.920Z,955.12
2018-08-22T10:56:37.285Z,955.08
2018-08-22T10:59:03.599Z,955.03
2018-08-22T11:01:29.935Z,955.04
2018-08-22T11:03:56.276Z,955.01
2018-08-22T11:06:22.583Z,955.04
2018-08-22T11:08:48.906Z,955.03
2018-08-22T11:11:15.234Z,954.90
2018-08-22T11:13:41.595Z,954.92
2018-08-22T11:16:07.940Z,954.85
2018-08-22T11:18:34.239Z,954.96
2018-08-22T11:21:00.568Z,954.88
2018-08-22T11:23:26.924Z,954.89
2018-08-22T11:25:53.284Z,954.87
2018-08-22T11:28:19.611Z,954.89
2018-08-22T11:30:45.978Z,954.85
2018-08-22T11:33:12.333Z,954.85
2018-08-22T11:35:38.648Z,954.85
2018-08-22T11:38:04.979Z,954.88
2018-08-22T11:40:31.323Z,954.79
2018-08-22T11:42:57.652Z,954.90
2018-08-22T11:45:23.972Z,954.81
2018-08-22T11:47:50.287Z,954.70
2018-08-22T11:50:16.597Z,954.75
2018-08-22T11:52:42.955Z,954.71
2018-08-22T11:55:09.273Z,954.88
2018-08-22T11:57:35.588Z,954.68
2018-08-22T12:00:01.942Z,954.61
2018-08-22T12:02:28.267Z,954.60
2018-08-22T12:04:54.587Z,954.60
2018-08-22T12:07:20.944Z,954.59
2018-08-22T12:09:47.259Z,954.58
2018-08-22T12:12:13.596Z,954.62
2018-08-22T12:14:39.915Z,954.51
2018-08-22T12:17:06.236Z,954.62
2018-08-22T12:19:32.559Z,954.51
2018-08-22T12:22:06.036Z,954.47
2018-08-22T12:24:26.141Z,954.46
2018-08-22T12:26:55.109Z,954.45
2018-08-22T12:29:19.613Z,954.45
2018-08-22T12:31:45.937Z,954.42
2018-08-22T12:34:12.271Z,954.40
2018-08-22T12:36:38.588Z,954.35
2018-08-22T12:39:04.918Z,954.33
2018-08-22T12:41:31.442Z,954.30
2018-08-22T12:44:05.526Z,954.35
2018-08-22T12:46:26.194Z,954.29
2018-08-22T12:48:52.515Z,954.31
2018-08-22T12:51:18.859Z,954.26
2018-08-22T12:53:45.236Z,954.27
2018-08-22T12:56:11.552Z,954.40
2018-08-22T12:58:37.855Z,954.32
2018-08-22T13:01:04.173Z,954.26
2018-08-22T13:03:30.496Z,954.23
2018-08-22T13:05:56.811Z,954.15
2018-08-22T13:08:23.123Z,954.12
2018-08-22T13:10:49.445Z,954.16
2018-08-22T13:16:01.287Z,954.06
2018-08-22T13:18:27.614Z,954.15
2018-08-22T13:20:53.948Z,954.10
2018-08-22T13:23:20.287Z,954.10
2018-08-22T13:25:49.574Z,954.13
2018-08-22T13:28:15.845Z,954.19
2018-08-22T13:30:42.172Z,954.10
2018-08-22T13:33:08.499Z,954.12
2018-08-22T13:35:34.831Z,954.04
2018-08-22T13:38:01.139Z,954.20
2018-08-22T13:40:31.628Z,954.09
2018-08-22T13:42:55.429Z,954.05
2018-08-22T13:45:21.741Z,954.10
2018-08-22T13:47:48.067Z,954.12
2018-08-22T13:50:14.400Z,954.12
2018-08-22T13:52:40.751Z,954.07
2018-08-22T13:55:07.077Z,954.14
2018-08-22T13:57:35.544Z,954.02
2018-08-22T14:00:00.735Z,954.00
2018-08-22T14:02:27.025Z,954.10
2018-08-22T14:04:54.546Z,954.05
2018-08-22T14:07:20.802Z,954.10
2018-08-22T14:09:47.141Z,954.02
2018-08-22T14:12:13.450Z,953.95
2018-08-22T14:14:42.556Z,953.92
2018-08-22T14:17:08.891Z,953.96
2018-08-22T14:19:35.218Z,953.91
2018-08-22T14:22:01.576Z,953.92
2018-08-22T14:24:27.867Z,953.80
2018-08-22T14:26:54.191Z,953.86
2018-08-22T14:29:20.529Z,953.84
2018-08-22T14:31:46.842Z,953.82
2018-08-22T14:34:13.198Z,953.85
2018-08-22T14:36:39.551Z,953.78
2018-08-22T14:39:05.869Z,953.83
2018-08-22T14:41:32.545Z,953.86
2018-08-22T14:43:58.837Z,953.81
2018-08-22T14:46:25.149Z,953.87
2018-08-22T14:48:51.466Z,953.78
2018-08-22T14:51:17.817Z,953.87
2018-08-22T14:53:44.142Z,953.84
2018-08-22T14:56:10.503Z,953.83
2018-08-22T14:58:36.799Z,953.82
2018-08-22T15:01:03.137Z,953.81
2018-08-22T15:03:29.632Z,953.87
2018-08-22T15:05:55.784Z,953.86
2018-08-22T15:08:22.122Z,953.91
2018-08-22T15:10:48.450Z,953.86
2018-08-22T15:13:14.776Z,953.84
2018-08-22T15:15:41.131Z,953.91
2018-08-22T15:18:07.438Z,953.76
2018-08-22T15:20:33.758Z,953.80
2018-08-22T15:23:00.131Z,953.78
2018-08-22T15:25:26.495Z,953.67
2018-08-22T15:27:52.817Z,953.78
2018-08-22T15:30:19.184Z,953.78
2018-08-22T15:32:45.499Z,953.80
2018-08-22T15:35:11.832Z,953.77
2018-08-22T15:37:38.164Z,953.82
2018-08-22T15:40:04.491Z,953.81
2018-08-22T15:42:30.829Z,953.82
2018-08-22T15:45:01.035Z,953.82
2018-08-22T15:47:24.507Z,953.85
2018-08-22T15:49:50.747Z,953.86
2018-08-22T15:52:17.132Z,953.82
2018-08-22T15:54:43.436Z,953.85
2018-08-22T15:57:09.780Z,953.89
2018-08-22T15:59:36.137Z,953.84
2018-08-22T16:02:02.495Z,953.81
2018-08-22T16:04:28.825Z,953.83
2018-08-22T16:06:55.145Z,953.86
2018-08-22T16:09:21.463Z,953.85
2018-08-22T16:11:47.805Z,953.84
2018-08-22T16:14:14.133Z,953.82
2018-08-22T16:16:40.465Z,953.85
2018-08-22T16:19:06.801Z,953.86
2018-08-22T16:21:33.166Z,953.88
2018-08-22T16:23:59.516Z,953.86
2018-08-22T16:26:25.850Z,953.90
2018-08-22T16:28:52.194Z,953.92
2018-08-22T16:31:18.567Z,953.80
2018-08-22T16:33:44.849Z,953.84
2018-08-22T16:36:11.176Z,953.88
2018-08-22T16:38:37.496Z,953.94
2018-08-22T16:41:03.832Z,953.93
2018-08-22T16:43:30.148Z,953.92
2018-08-22T16:45:56.499Z,953.94
2018-08-22T16:48:22.832Z,953.97
2018-08-22T16:50:49.159Z,953.93
2018-08-22T16:53:15.510Z,953.99
2018-08-22T16:55:41.937Z,953.98
2018-08-22T16:58:08.267Z,953.98
2018-08-22T17:00:34.645Z,954.04
2018-08-22T17:03:00.980Z,954.07
2018-08-22T17:05:27.323Z,954.11
2018-08-22T17:07:53.721Z,954.10
2018-08-22T17:10:19.993Z,954.10
2018-08-22T17:12:46.335Z,954.20
2018-08-22T17:15:12.700Z,954.10
2018-08-22T17:17:39.014Z,954.17
2018-08-22T17:20:05.331Z,954.13
2018-08-22T17:22:31.649Z,954.20
2018-08-22T17:24:57.982Z,954.18
2018-08-22T17:27:24.354Z,954.18
2018-08-22T17:29:50.674Z,954.20
2018-08-22T17:32:16.999Z,954.24
2018-08-22T17:34:43.330Z,954.28
2018-08-22T17:37:09.648Z,954.27
2018-08-22T17:39:35.969Z,954.35
2018-08-22T17:42:02.292Z,954.36
2018-08-22T17:44:28.637Z,954.40
2018-08-22T17:46:54.956Z,954.43
2018-08-22T17:49:21.322Z,954.50
2018-08-22T17:51:47.659Z,954.50
2018-08-22T17:54:14.024Z,954.58
2018-08-22T17:56:40.324Z,954.55
2018-08-22T17:59:06.632Z,954.66
2018-08-22T18:01:33.197Z,954.62
2018-08-22T18:03:59.520Z,954.68
2018-08-22T18:06:26.038Z,954.72
2018-08-22T18:08:52.280Z,954.62
2018-08-22T18:11:18.589Z,954.70
2018-08-22T18:13:44.995Z,954.69
2018-08-22T18:16:11.323Z,954.74
2018-08-22T18:18:37.742Z,954.84
2018-08-22T18:21:04.091Z,954.81
2018-08-22T18:23:30.423Z,954.79
2018-08-22T18:25:56.757Z,954.80
2018-08-22T18:28:23.111Z,954.82
2018-08-22T18:30:49.461Z,954.85
2018-08-22T18:33:15.791Z,954.87
2018-08-22T18:35:42.111Z,954.92
2018-08-22T18:38:08.459Z,954.95
2018-08-22T18:40:34.799Z,954.94
2018-08-22T18:43:01.134Z,954.96
2018-08-22T18:45:27.442Z,954.93
2018-08-22T18:47:53.822Z,954.97
2018-08-22T18:50:20.123Z,954.94
2018-08-22T18:52:46.497Z,954.89
2018-08-22T18:55:12.857Z,954.97
2018-08-22T18:57:39.173Z,954.97
2018-08-22T19:00:05.515Z,955.07
2018-08-22T19:02:31.848Z,955.11
2018-08-22T19:04:58.190Z,955.09
2018-08-22T19:07:24.504Z,955.04
2018-08-22T19:09:50.815Z,955.04
2018-08-22T19:12:17.142Z,955.03
2018-08-22T19:14:43.458Z,955.04
2018-08-22T19:17:09.781Z,955.04
2018-08-22T19:19:36.109Z,955.01
2018-08-22T19:22:02.494Z,954.96
2018-08-22T19:24:28.810Z,955.07
2018-08-22T19:26:55.194Z,955.05
2018-08-22T19:29:21.526Z,955.01
2018-08-22T19:31:47.858Z,955.01
2018-08-22T19:34:14.177Z,955.04
2018-08-22T19:36:40.497Z,955.07
2018-08-22T19:39:06.867Z,955.05
2018-08-22T19:41:33.240Z,955.09
2018-08-22T19:43:59.584Z,955.07
2018-08-22T19:46:25.901Z,955.06
2018-08-22T19:48:52.273Z,955.09
2018-08-22T19:51:18.597Z,955.02
2018-08-22T19:53:44.919Z,954.99
2018-08-22T19:56:11.273Z,955.05
2018-08-22T19:58:37.579Z,955.07
2018-08-22T20:01:03.892Z,955.07
2018-08-22T20:03:30.221Z,955.02
2018-08-22T20:05:56.552Z,954.94
2018-08-22T20:08:22.877Z,955.07
2018-08-22T20:10:49.215Z,954.95
2018-08-22T20:13:15.534Z,954.97
2018-08-22T20:15:41.876Z,955.01
2018-08-22T20:18:08.195Z,954.94
2018-08-22T20:20:34.559Z,954.89
2018-08-22T20:23:00.918Z,954.91
2018-08-22T20:25:27.195Z,954.91
2018-08-22T20:27:53.522Z,954.95
2018-08-22T20:30:19.863Z,954.86
2018-08-22T20:32:46.187Z,954.90
2018-08-22T20:35:12.467Z,954.90
2018-08-22T20:37:38.804Z,954.95
2018-08-22T20:40:05.122Z,954.90
2018-08-22T20:42:31.560Z,954.97
2018-08-22T20:44:57.861Z,954.95
2018-08-22T20:47:24.187Z,954.96
2018-08-22T20:49:50.520Z,955.00
2018-08-22T20:52:16.854Z,954.97
2018-08-22T20:54:43.218Z,955.07
2018-08-22T20:57:09.526Z,955.07
2018-08-22T20:59:35.926Z,954.98
2018-08-22T21:02:02.313Z,955.01
2018-08-22T21:04:28.598Z,955.09
2018-08-22T21:06:54.934Z,955.17
2018-08-22T21:09:21.244Z,955.30
2018-08-22T21:11:47.592Z,955.17
2018-08-22T21:14:13.938Z,955.21
2018-08-22T21:16:40.258Z,955.25
2018-08-22T21:19:06.583Z,955.20
2018-08-22T21:21:32.906Z,955.31
2018-08-22T21:23:59.214Z,955.24
2018-08-22T21:26:25.522Z,955.26
2018-08-22T21:28:51.839Z,955.33
2018-08-22T21:31:18.174Z,955.34
2018-08-22T21:33:44.494Z,955.35
2018-08-22T21:36:10.820Z,955.41
2018-08-22T21:38:37.132Z,955.37
2018-08-22T21:41:03.444Z,955.40
2018-08-22T21:43:29.784Z,955.38
2018-08-22T21:45:56.099Z,955.42
2018-08-22T21:48:22.412Z,955.48
2018-08-22T21:50:48.731Z,955.50
2018-08-22T21:53:15.049Z,955.41
2018-08-22T21:55:41.360Z,955.54
2018-08-22T21:58:07.671Z,955.54
2018-08-22T22:00:34.024Z,955.57
2018-08-22T22:03:00.358Z,955.67
2018-08-22T22:05:26.717Z,955.68
2018-08-22T22:07:53.127Z,955.67
2018-08-22T22:10:19.438Z,955.70
2018-08-22T22:12:45.753Z,955.65
2018-08-22T22:15:12.109Z,955.71
2018-08-22T22:17:38.417Z,955.72
2018-08-22T22:20:04.743Z,955.75
2018-08-22T22:22:31.047Z,955.72
2018-08-22T22:24:57.394Z,955.68
2018-08-22T22:27:23.708Z,955.70
2018-08-22T22:29:50.037Z,955.68
2018-08-22T22:32:16.392Z,955.65
2018-08-22T22:34:42.704Z,955.71
2018-08-22T22:37:09.026Z,955.62
2018-08-22T22:39:35.404Z,955.68
2018-08-22T22:42:01.733Z,955.70
2018-08-22T22:44:28.056Z,955.67
2018-08-22T22:46:54.384Z,955.67
2018-08-22T22:49:20.704Z,955.58
2018-08-22T22:51:47.027Z,955.60
2018-08-22T22:54:13.351Z,955.57
2018-08-22T22:56:39.685Z,955.52
2018-08-22T22:59:06.012Z,955.50
2018-08-22T23:01:32.420Z,955.53
2018-08-22T23:03:58.801Z,955.52
2018-08-22T23:06:25.108Z,955.40
2018-08-22T23:08:51.436Z,955.39
2018-08-22T23:11:17.767Z,955.38
2018-08-22T23:13:44.108Z,955.36
2018-08-22T23:16:10.411Z,955.42
2018-08-22T23:18:36.820Z,955.42
2018-08-22T23:21:03.039Z,955.41
2018-08-22T23:23:30.249Z,955.39
2018-08-22T23:25:56.585Z,955.46
2018-08-22T23:28:23.037Z,955.36
2018-08-22T23:30:49.360Z,955.42
2018-08-22T23:33:15.690Z,955.40
2018-08-22T23:35:42.011Z,955.38
2018-08-22T23:38:08.360Z,955.36
2018-08-22T23:40:34.697Z,955.32
2018-08-22T23:43:01.072Z,955.39
2018-08-22T23:45:27.349Z,955.35
2018-08-22T23:47:53.672Z,955.37
2018-08-22T23:50:19.982Z,955.45
2018-08-22T23:52:46.297Z,955.46
2018-08-22T23:55:12.620Z,955.40
2018-08-22T23:57:38.939Z,955.49
